Time;durP1;ratioP1;P1;durP2;ratioP2;P2;SDS_P1;SDS_P2;PMS_P1;PMS_P2;Temp;Humidity;BMP_temperature;BMP_pressure;BME280_temperature;BME280_humidity;BME280_pressure;Samples;Min_cycle;Max_cycle;Signal;HPM_P1;HPM_P2
2022/07/28 00:02:17;;;;;;;6.03;1.75;;;;;;;14.70;63.49;101954.00;4992570;28;20072;-77
2022/07/28 00:04:42;;;;;;;7.05;1.80;;;;;;;14.62;63.97;101951.97;4989602;28;20030;-76
2022/07/28 00:07:08;;;;;;;4.43;1.73;;;;;;;14.59;64.31;101947.03;4986342;28;20093;-77
2022/07/28 00:09:33;;;;;;;3.65;1.70;;;;;;;14.46;64.77;101951.56;4989861;28;20026;-77
2022/07/28 00:11:59;;;;;;;3.53;1.67;;;;;;;14.56;63.67;101942.03;4987213;28;20039;-77
2022/07/28 00:14:24;;;;;;;5.47;1.70;;;;;;;14.45;64.51;101955.09;4989209;28;20445;-77
2022/07/28 00:16:51;;;;;;;4.53;1.80;;;;;;;14.47;64.54;101953.25;4989153;28;20030;-76
2022/07/28 00:19:17;;;;;;;5.75;1.70;;;;;;;14.37;64.59;101957.50;4989005;28;20497;-77
2022/07/28 00:21:42;;;;;;;5.03;1.80;;;;;;;14.41;64.70;101944.09;4989450;28;20042;-76
2022/07/28 00:24:08;;;;;;;5.68;1.80;;;;;;;14.35;64.79;101950.63;4987633;28;20106;-77
2022/07/28 00:26:33;;;;;;;5.15;1.75;;;;;;;14.30;65.02;101946.72;4986377;28;20058;-77
2022/07/28 00:28:59;;;;;;;4.45;1.73;;;;;;;14.27;64.92;101958.22;4985960;28;20030;-77
2022/07/28 00:31:24;;;;;;;4.88;1.90;;;;;;;14.37;64.65;101947.06;4992257;28;20026;-77
2022/07/28 00:33:49;;;;;;;4.72;1.90;;;;;;;14.28;64.27;101944.25;4989881;28;20479;-77
2022/07/28 00:36:15;;;;;;;5.75;2.05;;;;;;;14.16;64.55;101945.19;4987711;28;20030;-77
2022/07/28 00:38:40;;;;;;;5.50;1.90;;;;;;;14.10;64.88;101932.63;4985884;28;20022;-77
2022/07/28 00:41:12;;;;;;;4.20;1.90;;;;;;;14.16;65.62;101939.97;4989429;28;20512;-77
2022/07/28 00:43:42;;;;;;;4.50;2.08;;;;;;;14.18;65.66;101935.47;4983413;28;20034;-77
2022/07/28 00:46:08;;;;;;;5.15;1.90;;;;;;;14.16;65.36;101936.53;4987717;28;20045;-76
2022/07/28 00:48:37;;;;;;;5.03;2.00;;;;;;;14.15;65.35;101933.09;4994981;28;20053;-77
2022/07/28 00:51:02;;;;;;;5.18;1.70;;;;;;;14.06;65.35;101933.84;4990985;28;20092;-77
2022/07/28 00:53:28;;;;;;;4.95;1.80;;;;;;;14.09;65.06;101934.41;4992771;28;20026;-77
2022/07/28 00:55:54;;;;;;;4.40;1.85;;;;;;;14.11;65.10;101936.91;4989417;28;20034;-77
2022/07/28 00:58:19;;;;;;;4.03;1.60;;;;;;;14.06;65.07;101934.66;4979552;28;20030;-77
2022/07/28 01:00:45;;;;;;;7.25;2.05;;;;;;;13.97;65.52;101931.94;4988490;28;20454;-77
2022/07/28 01:03:10;;;;;;;6.13;2.00;;;;;;;14.14;64.68;101925.41;4988107;28;20072;-77
2022/07/28 01:06:02;;;;;;;5.97;2.10;;;;;;;14.12;64.81;101937.75;4998993;28;20032;-76
2022/07/28 01:09:15;;;;;;;5.15;2.00;;;;;;;14.12;64.80;101927.31;4943042;28;20346;-78
2022/07/28 01:12:18;;;;;;;4.25;1.77;;;;;;;14.07;64.29;101925.06;4930867;29;20575;-77
2022/07/28 01:14:55;;;;;;;4.47;1.67;;;;;;;13.82;65.27;101926.16;4928277;29;20083;-77
2022/07/28 01:17:47;;;;;;;4.05;1.80;;;;;;;13.97;64.56;101921.50;4921214;29;20031;-77
2022/07/28 01:20:35;;;;;;;4.20;1.95;;;;;;;13.89;65.08;101931.72;4927919;29;20051;-76
2022/07/28 01:23:19;;;;;;;;;;;;;;;14.12;63.91;101928.13;4927029;29;20464;-77
2022/07/28 01:26:32;;;;;;;5.45;2.00;;;;;;;13.98;64.36;101921.38;4938955;29;20024;-77
2022/07/28 01:29:22;;;;;;;5.75;1.90;;;;;;;13.81;64.94;101922.69;4927577;29;20051;-76
2022/07/28 01:31:56;;;;;;;4.55;1.60;;;;;;;13.88;63.97;101914.38;4921170;29;20047;-76
2022/07/28 01:34:31;;;;;;;5.32;1.75;;;;;;;13.80;64.29;101917.59;4919989;29;20039;-76
2022/07/28 01:37:08;;;;;;;5.90;1.92;;;;;;;13.78;64.35;101898.66;4932223;29;20070;-77
2022/07/28 01:39:36;;;;;;;5.38;1.95;;;;;;;13.57;65.01;101911.56;4908531;29;20102;-76
2022/07/28 01:42:03;;;;;;;4.25;1.60;;;;;;;13.76;64.65;101914.44;4922443;29;20464;-76
2022/07/28 01:44:33;;;;;;;5.00;1.70;;;;;;;13.67;64.57;101906.47;4925720;29;20440;-77
2022/07/28 01:47:06;;;;;;;3.60;1.52;;;;;;;13.77;64.42;101913.47;4928973;28;20054;-76
2022/07/28 01:49:33;;;;;;;4.57;2.10;;;;;;;13.54;64.84;101901.38;4982759;28;20022;-77
2022/07/28 01:52:00;;;;;;;5.97;1.92;;;;;;;13.57;64.94;101911.56;4987297;28;20034;-76
2022/07/28 01:54:28;;;;;;;5.37;2.03;;;;;;;13.49;65.04;101903.50;4985835;28;20077;-77
2022/07/28 01:56:55;;;;;;;6.80;1.80;;;;;;;13.46;65.97;101893.31;4987206;28;20015;-77
2022/07/28 01:59:23;;;;;;;4.65;1.98;;;;;;;13.42;66.06;101886.66;4986249;28;20065;-77
2022/07/28 02:01:50;;;;;;;4.70;1.77;;;;;;;13.34;66.68;101884.66;4982144;28;20022;-77
2022/07/28 02:04:19;;;;;;;5.72;2.05;;;;;;;13.40;66.23;101896.38;4985676;28;20414;-77
2022/07/28 02:06:46;;;;;;;6.28;1.90;;;;;;;13.41;66.08;101895.44;4989482;28;20034;-76
2022/07/28 02:09:13;;;;;;;4.43;1.70;;;;;;;13.43;65.78;101897.00;4986951;28;20036;-76
2022/07/28 02:11:40;;;;;;;6.65;2.10;;;;;;;13.32;66.02;101888.34;4984264;28;20022;-78
2022/07/28 02:14:13;;;;;;;6.80;2.05;;;;;;;13.20;66.67;101888.28;4981478;28;20379;-77
2022/07/28 02:16:45;;;;;;;4.97;1.77;;;;;;;13.23;66.55;101897.66;4982020;28;20061;-76
2022/07/28 02:19:13;;;;;;;4.30;1.80;;;;;;;13.37;66.61;101892.25;4983500;28;20030;-77
2022/07/28 02:21:39;;;;;;;4.43;1.80;;;;;;;13.32;66.47;101890.94;4986157;28;20037;-77
2022/07/28 02:24:06;;;;;;;6.07;2.10;;;;;;;13.29;66.78;101885.00;4987800;28;20384;-77
2022/07/28 02:26:36;;;;;;;5.40;1.90;;;;;;;13.21;67.20;101889.97;4985143;28;20050;-77
2022/07/28 02:29:07;;;;;;;5.45;1.88;;;;;;;13.19;66.92;101885.78;4976864;28;20054;-77
2022/07/28 02:31:40;;;;;;;7.10;2.00;;;;;;;13.17;67.67;101888.50;4984560;28;20026;-77
2022/07/28 02:34:07;;;;;;;4.82;2.20;;;;;;;13.16;66.84;101888.63;4981076;28;20046;-76
2022/07/28 02:36:44;;;;;;;6.45;2.10;;;;;;;13.18;67.26;101874.53;4980708;28;20029;-76
2022/07/28 02:39:50;;;;;;;5.18;2.10;;;;;;;13.27;66.84;101868.66;4980112;28;20030;-76
2022/07/28 02:42:25;;;;;;;5.80;2.15;;;;;;;13.14;67.32;101861.88;4984544;28;20050;-76
2022/07/28 02:44:57;;;;;;;6.97;1.95;;;;;;;13.15;67.10;101864.34;4992333;28;20484;-76
2022/07/28 02:47:25;;;;;;;5.20;2.00;;;;;;;13.11;67.70;101862.94;4986422;28;20468;-76
2022/07/28 02:49:54;;;;;;;6.28;1.95;;;;;;;13.13;67.38;101866.25;4986985;28;20363;-76
2022/07/28 02:52:24;;;;;;;6.35;2.08;;;;;;;13.10;67.54;101870.88;4985979;28;20026;-77
2022/07/28 02:54:53;;;;;;;6.80;1.98;;;;;;;13.14;67.32;101862.72;4986861;28;20030;-76
2022/07/28 02:57:20;;;;;;;5.47;2.03;;;;;;;13.18;67.46;101866.72;4981746;28;20069;-77
2022/07/28 02:59:47;;;;;;;5.93;2.05;;;;;;;13.06;67.88;101870.25;4986664;28;20033;-77
2022/07/28 03:02:12;;;;;;;5.78;2.10;;;;;;;13.18;67.00;101866.72;4985007;28;20030;-76
2022/07/28 03:05:01;;;;;;;5.97;2.25;;;;;;;13.03;67.22;101871.31;4986175;28;20481;-77
2022/07/28 03:07:29;;;;;;;6.03;2.13;;;;;;;12.96;67.33;101869.28;4981643;28;20030;-76
2022/07/28 03:09:55;;;;;;;4.88;2.15;;;;;;;12.93;67.57;101874.72;4986628;28;20078;-76
2022/07/28 03:12:20;;;;;;;11.43;2.22;;;;;;;13.00;67.70;101875.91;4985495;28;20402;-77
2022/07/28 03:14:46;;;;;;;4.88;1.92;;;;;;;12.98;67.50;101872.63;4986277;28;20026;-77
2022/07/28 03:17:11;;;;;;;8.35;2.30;;;;;;;13.01;67.55;101873.19;4987763;28;20036;-76
2022/07/28 03:19:37;;;;;;;4.72;2.10;;;;;;;12.96;67.68;101877.09;4985223;28;20023;-77
2022/07/28 03:22:03;;;;;;;5.32;1.90;;;;;;;12.93;67.93;101874.72;4985729;28;20030;-76
2022/07/28 03:24:34;;;;;;;5.68;1.92;;;;;;;12.84;68.41;101870.19;4985690;28;20029;-76
2022/07/28 03:27:37;;;;;;;5.65;1.92;;;;;;;13.01;67.81;101874.97;4985513;28;20058;-77
2022/07/28 03:30:06;;;;;;;5.88;2.00;;;;;;;12.93;68.39;101880.75;4920641;29;20039;-77
2022/07/28 03:32:36;;;;;;;7.30;2.17;;;;;;;12.89;68.90;101878.50;4925973;29;20044;-77
2022/07/28 03:35:01;;;;;;;5.45;1.80;;;;;;;12.96;67.63;101884.91;4922602;29;20038;-76
2022/07/28 03:37:37;;;;;;;3.47;1.60;;;;;;;12.92;67.74;101888.69;4925604;29;20048;-77
2022/07/28 03:40:04;;;;;;;6.40;2.15;;;;;;;12.80;68.21;101895.66;4916183;29;20109;-77
2022/07/28 03:42:32;;;;;;;5.05;2.17;;;;;;;12.88;68.25;101897.69;4920609;29;20598;-76
2022/07/28 03:44:59;;;;;;;4.93;1.95;;;;;;;12.92;67.67;101899.13;4931694;29;20072;-77
2022/07/28 03:47:24;;;;;;;6.97;2.40;;;;;;;12.80;68.18;101900.03;4933324;29;20031;-76
2022/07/28 03:49:50;;;;;;;6.35;2.28;;;;;;;12.82;68.36;101903.34;4922728;29;20035;-76
2022/07/28 03:52:16;;;;;;;6.18;2.10;;;;;;;12.75;68.34;101898.59;4923888;29;20048;-77
2022/07/28 03:54:42;;;;;;;5.45;2.00;;;;;;;12.85;67.99;101897.91;4930367;29;20110;-76
2022/07/28 03:57:07;;;;;;;6.88;2.20;;;;;;;12.86;68.55;101907.38;4924874;29;20035;-77
2022/07/28 03:59:33;;;;;;;8.10;1.90;;;;;;;12.80;68.91;101902.63;4930700;29;20038;-75
2022/07/28 04:01:58;;;;;;;5.90;2.17;;;;;;;12.74;68.29;101896.94;4912264;29;20445;-77
2022/07/28 04:04:24;;;;;;;5.35;2.20;;;;;;;12.69;69.68;101904.25;4966089;28;20042;-77
2022/07/28 04:06:49;;;;;;;5.05;2.15;;;;;;;12.59;69.42;101898.03;4986114;28;20021;-77
2022/07/28 04:09:15;;;;;;;7.97;2.08;;;;;;;12.61;69.36;101900.53;4988599;28;20019;-77
2022/07/28 04:11:41;;;;;;;4.88;2.20;;;;;;;12.63;68.64;101903.88;4989570;28;20105;-76
2022/07/28 04:14:06;;;;;;;5.70;2.20;;;;;;;12.71;68.77;101891.94;4989575;28;20026;-76
2022/07/28 04:16:32;;;;;;;7.13;2.08;;;;;;;12.75;68.85;101898.59;4989903;28;20433;-77
2022/07/28 04:18:57;;;;;;;5.57;2.05;;;;;;;12.72;69.13;101892.75;4988187;28;20479;-77
2022/07/28 04:21:23;;;;;;;5.22;2.08;;;;;;;12.59;69.39;101903.25;4986392;28;20475;-77
2022/07/28 04:23:48;;;;;;;6.13;2.35;;;;;;;12.58;69.43;101896.38;4988328;28;20073;-76
2022/07/28 04:26:14;;;;;;;5.65;2.40;;;;;;;12.43;69.93;101893.13;4979164;28;20046;-76
2022/07/28 04:28:39;;;;;;;6.03;2.50;;;;;;;12.52;70.25;101890.81;4985183;28;20044;-76
2022/07/28 04:31:04;;;;;;;8.48;2.30;;;;;;;12.37;70.78;101877.13;4989893;28;20025;-77
2022/07/28 04:33:30;;;;;;;6.22;2.40;;;;;;;12.48;70.14;101895.38;4987600;28;20125;-77
2022/07/28 04:35:55;;;;;;;6.05;2.40;;;;;;;12.45;70.47;101878.25;4983341;28;20035;-77
2022/07/28 04:38:20;;;;;;;6.10;2.47;;;;;;;12.55;70.20;101886.19;4987928;28;20492;-76
2022/07/28 04:40:47;;;;;;;6.25;2.50;;;;;;;12.62;70.61;101887.44;4988258;28;20034;-77
2022/07/28 04:43:13;;;;;;;6.03;2.60;;;;;;;12.60;69.98;101884.09;4988967;28;20037;-76
2022/07/28 04:45:38;;;;;;;6.95;2.63;;;;;;;12.51;70.48;101887.38;4988460;28;20025;-76
2022/07/28 04:48:04;;;;;;;5.43;2.30;;;;;;;12.42;71.61;101888.03;4988430;28;20022;-76
2022/07/28 04:50:31;;;;;;;6.90;2.65;;;;;;;12.46;71.84;101892.91;4986960;28;20113;-76
2022/07/28 04:52:57;;;;;;;8.15;3.03;;;;;;;12.48;71.62;101880.59;4988149;28;20046;-76
2022/07/28 04:55:23;;;;;;;5.78;2.40;;;;;;;12.51;71.09;101881.34;4987286;28;20030;-75
2022/07/28 04:57:48;;;;;;;5.88;2.65;;;;;;;12.58;71.83;101885.97;4989186;28;20029;-76
2022/07/28 05:00:14;;;;;;;5.93;2.50;;;;;;;12.60;72.09;101891.88;4988250;28;20028;-75
2022/07/28 05:02:40;;;;;;;6.00;2.75;;;;;;;12.57;71.02;101892.13;4988325;28;20027;-76
2022/07/28 05:05:06;;;;;;;11.50;3.03;;;;;;;12.61;70.89;101890.94;4988597;28;20366;-76
2022/07/28 05:07:32;;;;;;;7.28;2.58;;;;;;;12.68;70.85;101892.19;4988057;28;20045;-77
2022/07/28 05:09:57;;;;;;;6.40;2.70;;;;;;;12.67;71.42;101884.47;4986874;28;20542;-77
2022/07/28 05:12:22;;;;;;;7.35;3.13;;;;;;;12.61;70.92;101885.75;4985941;28;20034;-76
2022/07/28 05:14:48;;;;;;;7.32;2.92;;;;;;;12.70;71.29;101879.88;4975221;28;20027;-76
2022/07/28 05:17:13;;;;;;;7.72;3.08;;;;;;;12.76;70.95;101879.41;4978003;28;20022;-74
2022/07/28 05:19:39;;;;;;;6.90;2.80;;;;;;;12.86;70.88;101878.75;4987919;28;20045;-76
2022/07/28 05:22:04;;;;;;;7.90;2.90;;;;;;;12.87;70.49;101883.00;4997644;28;20426;-76
2022/07/28 05:24:29;;;;;;;8.40;2.95;;;;;;;12.83;70.44;101874.56;4988253;28;20026;-77
2022/07/28 05:26:55;;;;;;;7.95;3.20;;;;;;;12.76;71.70;101879.41;4986808;28;20426;-76
2022/07/28 05:29:20;;;;;;;8.40;3.20;;;;;;;12.85;71.65;101879.69;4987496;28;20026;-76
2022/07/28 05:31:45;;;;;;;5.50;2.75;;;;;;;12.91;70.26;101889.66;4986792;28;20312;-76
2022/07/28 05:34:11;;;;;;;8.55;2.90;;;;;;;12.92;70.83;101878.28;4989287;28;20442;-76
2022/07/28 05:36:36;;;;;;;7.20;2.83;;;;;;;12.94;71.21;101881.59;5001601;28;20570;-77
2022/07/28 05:39:02;;;;;;;6.10;2.70;;;;;;;13.02;70.90;101887.06;4987550;28;20034;-76
2022/07/28 05:41:27;;;;;;;7.30;2.58;;;;;;;12.91;71.12;101879.25;4990616;28;20383;-77
2022/07/28 05:43:53;;;;;;;6.82;2.80;;;;;;;13.09;70.05;101890.03;4986524;28;20481;-77
2022/07/28 05:46:18;;;;;;;8.13;2.70;;;;;;;13.14;69.77;101888.75;4985296;28;20462;-77
2022/07/28 05:48:44;;;;;;;7.82;2.63;;;;;;;13.16;69.43;101894.66;4987805;28;20018;-76
2022/07/28 05:51:10;;;;;;;5.95;2.38;;;;;;;13.12;68.94;101893.22;4987688;28;20033;-76
2022/07/28 05:53:35;;;;;;;7.45;2.50;;;;;;;13.25;69.53;101896.63;4974077;28;20053;-78
2022/07/28 05:56:01;;;;;;;7.45;2.30;;;;;;;13.29;69.76;101898.03;4987849;28;20026;-77
2022/07/28 05:58:26;;;;;;;7.35;2.10;;;;;;;13.36;69.00;101903.63;4986665;28;20349;-75
2022/07/28 06:00:51;;;;;;;6.57;2.20;;;;;;;13.44;68.84;101896.03;4986998;28;20018;-76
2022/07/28 06:03:18;;;;;;;5.95;2.15;;;;;;;13.47;68.01;101905.38;4981048;28;20471;-76
2022/07/28 06:05:43;;;;;;;4.18;1.80;;;;;;;13.48;67.89;101896.66;4988826;28;20031;-75
2022/07/28 06:08:09;;;;;;;6.45;2.03;;;;;;;13.55;67.51;101897.81;4979626;28;20042;-77
2022/07/28 06:13:18;;;;;;;6.05;1.90;;;;;;;13.57;66.61;101901.13;4987637;28;20044;-77
2022/07/28 06:15:47;;;;;;;7.30;2.30;;;;;;;13.60;67.60;101906.13;4979868;28;20031;-77
2022/07/28 06:18:12;;;;;;;;;;;;;;;13.75;67.34;101904.09;4981446;28;20040;-76
2022/07/28 06:20:38;;;;;;;8.00;2.35;;;;;;;13.68;67.68;101893.31;4973928;28;19910;-76
2022/07/28 06:23:04;;;;;;;11.98;3.08;;;;;;;13.74;68.17;101892.84;4976746;28;20530;-76
2022/07/28 06:25:30;;;;;;;7.82;2.33;;;;;;;13.70;67.29;101899.22;4978927;28;20026;-76
2022/07/28 06:27:59;;;;;;;6.43;2.10;;;;;;;13.70;67.77;101896.63;4968023;28;20398;-77
2022/07/28 06:30:24;;;;;;;;;;;;;;;13.88;67.27;101893.53;4974513;28;20112;-77
2022/07/28 06:32:50;;;;;;;12.55;2.65;;;;;;;13.72;66.11;101894.75;4980473;28;20362;-77
2022/07/28 06:35:17;;;;;;;6.00;2.00;;;;;;;13.76;66.83;101901.38;4986702;28;20033;-77
2022/07/28 06:37:43;;;;;;;11.18;2.72;;;;;;;13.76;67.55;101885.75;4987768;28;20030;-76
2022/07/28 06:40:10;;;;;;;7.47;2.35;;;;;;;13.82;65.83;101895.69;4986924;28;20031;-77
2022/07/28 06:42:36;;;;;;;5.78;1.90;;;;;;;13.87;66.29;101897.91;4979345;28;20097;-77
2022/07/28 06:45:03;;;;;;;8.23;2.33;;;;;;;13.93;65.77;101896.59;4986865;28;20022;-77
2022/07/28 06:47:29;;;;;;;9.82;2.47;;;;;;;14.05;65.80;101898.28;4982729;28;20056;-77
2022/07/28 06:49:54;;;;;;;7.72;2.17;;;;;;;14.18;65.59;101891.13;4982121;28;20101;-76
2022/07/28 06:52:20;;;;;;;4.93;1.65;;;;;;;14.22;65.43;101897.75;4982248;28;20109;-77
2022/07/28 06:54:49;;;;;;;10.57;2.03;;;;;;;14.35;64.68;101906.25;4994129;28;20033;-77
2022/07/28 06:57:15;;;;;;;6.30;1.70;;;;;;;14.50;65.02;101900.75;4984876;28;20041;-76
2022/07/28 06:59:40;;;;;;;33.13;4.95;;;;;;;14.59;64.95;101897.41;4979794;28;20026;-76
2022/07/28 07:02:05;;;;;;;36.40;4.90;;;;;;;14.60;63.95;101891.25;4994502;28;20048;-76
2022/07/28 07:04:31;;;;;;;5.22;1.83;;;;;;;14.63;64.57;101896.22;4986163;28;20101;-77
2022/07/28 07:06:56;;;;;;;6.47;1.92;;;;;;;14.68;63.39;101895.81;4982630;28;20031;-77
2022/07/28 07:09:22;;;;;;;6.40;1.63;;;;;;;14.64;62.72;101892.66;4977805;28;20465;-76
2022/07/28 07:11:47;;;;;;;5.75;1.80;;;;;;;14.72;63.01;101890.22;4985758;28;20041;-76
2022/07/28 07:14:12;;;;;;;4.85;1.60;;;;;;;14.68;62.28;101885.38;4986079;28;20069;-76
2022/07/28 07:16:38;;;;;;;46.60;5.72;;;;;;;14.72;61.91;101879.78;4985893;28;20029;-77
2022/07/28 07:19:03;;;;;;;6.35;1.65;;;;;;;14.76;62.59;101889.03;4980870;28;20108;-77
2022/07/28 07:21:29;;;;;;;5.38;1.70;;;;;;;14.76;61.68;101875.97;4986424;28;20030;-78
2022/07/28 07:23:54;;;;;;;171.38;19.48;;;;;;;14.87;62.60;101886.38;4986177;28;20455;-77
2022/07/28 07:26:19;;;;;;;7.07;1.60;;;;;;;14.94;61.73;101888.47;4982678;28;20137;-77
2022/07/28 07:28:45;;;;;;;6.90;1.98;;;;;;;15.01;61.41;101874.75;4981672;28;20060;-78
2022/07/28 07:31:10;;;;;;;5.47;1.45;;;;;;;15.10;60.90;101873.16;4985293;28;20058;-77
2022/07/28 07:33:36;;;;;;;6.75;1.85;;;;;;;15.14;60.22;101879.81;4986696;28;20033;-76
2022/07/28 07:36:01;;;;;;;9.10;2.35;;;;;;;15.21;60.67;101891.38;4997607;28;20018;-77
2022/07/28 07:38:26;;;;;;;6.70;2.15;;;;;;;15.29;60.23;101880.28;4987701;28;20571;-77
2022/07/28 07:40:52;;;;;;;7.18;1.92;;;;;;;15.38;60.97;101875.09;4986961;28;20084;-76
2022/07/28 07:43:17;;;;;;;7.25;2.05;;;;;;;15.35;59.49;101877.97;4985568;28;20026;-77
2022/07/28 07:45:43;;;;;;;12.32;2.78;;;;;;;15.41;60.40;101877.44;4991414;28;20383;-78
2022/07/28 07:48:09;;;;;;;11.80;2.38;;;;;;;15.43;60.63;101874.72;4987402;28;20371;-78
2022/07/28 07:50:34;;;;;;;22.63;4.32;;;;;;;15.49;60.02;101876.81;4986218;28;20048;-77
2022/07/28 07:53:00;;;;;;;17.50;2.92;;;;;;;15.60;59.67;101881.94;4987312;28;20030;-77
2022/07/28 07:55:26;;;;;;;5.43;1.52;;;;;;;15.67;59.69;101871.81;4990303;28;20522;-77
2022/07/28 07:57:51;;;;;;;5.32;1.55;;;;;;;15.66;58.69;101878.00;4986730;28;20475;-77
2022/07/28 08:00:17;;;;;;;6.30;1.60;;;;;;;15.70;59.04;101876.75;4985985;28;20038;-77
2022/07/28 08:02:42;;;;;;;4.03;1.40;;;;;;;15.81;58.81;101879.28;4987775;28;20474;-78
2022/07/28 08:05:08;;;;;;;4.60;1.45;;;;;;;15.78;57.89;101869.09;4990071;28;20026;-75
2022/07/28 08:07:34;;;;;;;4.20;1.40;;;;;;;15.85;57.60;101866.75;4988219;28;20522;-79
2022/07/28 08:10:00;;;;;;;5.35;1.38;;;;;;;15.99;57.47;101876.00;4987999;28;20018;-77
2022/07/28 08:12:26;;;;;;;4.88;1.30;;;;;;;16.05;57.16;101872.84;4987324;28;20501;-79
2022/07/28 08:14:52;;;;;;;3.20;1.30;;;;;;;16.16;57.63;101872.72;4989466;28;20050;-76
2022/07/28 08:17:18;;;;;;;6.80;1.60;;;;;;;16.24;57.94;101880.75;4987061;28;20086;-77
2022/07/28 08:19:43;;;;;;;3.95;1.45;;;;;;;16.40;58.12;101875.81;4988850;28;20038;-78
2022/07/28 08:22:09;;;;;;;5.97;1.50;;;;;;;16.43;56.93;101862.41;4989508;28;20512;-77
2022/07/28 08:24:34;;;;;;;5.03;1.60;;;;;;;16.45;55.56;101873.56;4988506;28;20834;-76
2022/07/28 08:27:00;;;;;;;5.57;1.27;;;;;;;16.53;57.33;101869.47;4993486;28;20057;-76
2022/07/28 08:29:26;;;;;;;4.88;1.30;;;;;;;16.65;57.13;101857.88;4980000;28;20064;-76
2022/07/28 08:31:51;;;;;;;4.88;1.40;;;;;;;16.72;56.93;101853.75;4989525;28;20152;-77
2022/07/28 08:34:16;;;;;;;5.47;1.70;;;;;;;16.89;56.71;101868.75;4989111;28;20065;-77
2022/07/28 08:36:42;;;;;;;4.15;1.45;;;;;;;16.86;54.36;101862.94;4988346;28;20466;-77
2022/07/28 08:39:07;;;;;;;5.10;1.35;;;;;;;16.84;54.53;101868.34;4985351;28;20030;-76
2022/07/28 08:41:42;;;;;;;3.33;1.20;;;;;;;16.96;54.21;101864.59;4988568;28;20034;-77
2022/07/28 08:44:14;;;;;;;3.78;1.40;;;;;;;16.87;54.27;101860.22;4989253;28;20034;-76
2022/07/28 08:46:41;;;;;;;5.10;1.30;;;;;;;17.07;53.97;101873.25;4988984;28;20023;-79
2022/07/28 08:49:08;;;;;;;4.97;1.40;;;;;;;17.15;53.70;101870.78;4987647;28;20022;-81
2022/07/28 08:51:35;;;;;;;4.03;1.35;;;;;;;17.28;54.40;101868.66;4988740;28;20057;-79
2022/07/28 08:54:02;;;;;;;4.13;1.27;;;;;;;17.41;54.82;101865.69;4977251;28;20033;-79
2022/07/28 08:56:27;;;;;;;4.70;1.40;;;;;;;17.48;53.85;101857.09;4988080;28;20026;-82
2022/07/28 08:58:54;;;;;;;5.05;1.38;;;;;;;17.65;54.90;101866.00;4984892;28;20390;-80
2022/07/28 09:01:21;;;;;;;4.47;1.38;;;;;;;17.74;53.95;101872.22;4988183;28;20112;-79
2022/07/28 09:03:48;;;;;;;4.60;1.30;;;;;;;17.93;54.36;101872.09;4986240;28;20058;-81
2022/07/28 09:06:14;;;;;;;4.05;1.40;;;;;;;17.91;51.32;101871.41;4990064;28;20037;-81
2022/07/28 09:08:39;;;;;;;3.22;1.20;;;;;;;17.83;50.44;101860.81;4986041;28;20022;-79
2022/07/28 09:11:06;;;;;;;6.68;1.42;;;;;;;17.81;50.16;101862.78;4988158;28;20029;-82
2022/07/28 09:13:34;;;;;;;3.40;1.13;;;;;;;17.88;51.61;101858.59;4984913;28;20044;-79
2022/07/28 09:15:59;;;;;;;4.35;1.40;;;;;;;17.83;48.85;101863.44;4990277;28;20033;-80
2022/07/28 09:18:24;;;;;;;4.28;1.17;;;;;;;17.93;50.11;101856.34;4985549;28;20034;-83
2022/07/28 09:20:50;;;;;;;3.72;1.20;;;;;;;17.92;50.49;101867.00;4986101;28;20050;-74
2022/07/28 09:23:15;;;;;;;4.03;1.23;;;;;;;17.97;49.93;101862.94;4989748;28;20061;-77
2022/07/28 09:25:41;;;;;;;3.33;1.20;;;;;;;17.99;49.20;101861.00;4988450;28;20137;-76
2022/07/28 09:28:08;;;;;;;3.20;1.20;;;;;;;18.13;49.98;101858.84;4994867;28;20502;-79
2022/07/28 09:30:36;;;;;;;6.35;1.27;;;;;;;18.23;51.00;101856.97;4994720;28;20038;-79
2022/07/28 09:33:17;;;;;;;3.92;1.20;;;;;;;18.33;51.35;101851.63;4992455;28;20485;-81
2022/07/28 09:35:45;;;;;;;6.03;1.40;;;;;;;18.31;49.74;101865.75;4986536;28;20125;-79
2022/07/28 09:38:11;;;;;;;3.08;1.23;;;;;;;18.22;49.21;101865.81;4981447;28;20114;-78
2022/07/28 09:40:36;;;;;;;3.50;1.30;;;;;;;18.45;49.75;101851.25;4987632;28;20022;-76
2022/07/28 09:43:01;;;;;;;5.40;1.30;;;;;;;18.52;50.55;101841.81;4987915;28;20402;-76
2022/07/28 09:45:27;;;;;;;6.78;1.35;;;;;;;18.53;49.25;101843.44;4985780;28;20030;-76
2022/07/28 09:48:12;;;;;;;6.10;1.60;;;;;;;18.68;50.25;101840.28;4986200;28;20037;-76
2022/07/28 09:50:41;;;;;;;5.97;1.70;;;;;;;18.81;49.31;101833.66;4985958;28;20022;-76
2022/07/28 09:53:20;;;;;;;2.90;1.17;;;;;;;18.88;49.53;101841.75;4987115;28;20030;-75
2022/07/28 09:56:03;;;;;;;;;;;;;;;19.04;50.36;101836.59;4985655;28;20030;-78
2022/07/28 09:58:28;;;;;;;4.00;1.23;;;;;;;19.09;49.10;101813.25;4984620;28;20322;-77
2022/07/28 10:01:19;;;;;;;4.22;1.13;;;;;;;19.32;50.27;101821.41;4983065;28;20542;-77
2022/07/28 10:03:49;;;;;;;5.45;1.23;;;;;;;19.40;48.09;101815.38;4988222;28;20033;-77
2022/07/28 10:06:23;;;;;;;6.30;1.30;;;;;;;19.48;47.28;101806.69;4985333;28;20019;-77
2022/07/28 10:08:49;;;;;;;3.13;1.30;;;;;;;19.32;47.92;101808.25;4983655;28;20032;-77
2022/07/28 10:11:17;;;;;;;3.40;1.20;;;;;;;19.45;47.21;101813.09;4984808;28;20083;-76
2022/07/28 10:13:54;;;;;;;5.33;1.23;;;;;;;19.47;47.22;101805.03;4983654;28;20034;-76
2022/07/28 10:16:20;;;;;;;4.32;1.00;;;;;;;19.67;49.92;101800.34;4985316;28;20284;-76
2022/07/28 10:18:46;;;;;;;3.83;0.93;;;;;;;19.80;46.20;101806.81;4986844;28;20125;-77
2022/07/28 10:21:14;;;;;;;6.10;1.40;;;;;;;19.85;48.37;101801.06;4986374;28;20050;-76
2022/07/28 10:23:44;;;;;;;3.92;1.25;;;;;;;19.97;46.71;101802.41;4976609;28;20117;-75
2022/07/28 10:26:10;;;;;;;3.95;1.10;;;;;;;19.86;44.40;101794.81;4977668;28;20126;-76
2022/07/28 10:28:38;;;;;;;3.45;1.00;;;;;;;19.91;45.03;101791.69;4985959;28;20038;-76
2022/07/28 10:31:08;;;;;;;4.57;1.00;;;;;;;19.91;44.63;101789.88;4995289;28;20038;-76
2022/07/28 10:33:37;;;;;;;4.03;1.10;;;;;;;19.87;43.74;101791.19;4986437;28;20784;-76
2022/07/28 10:36:03;;;;;;;3.65;1.02;;;;;;;20.03;43.78;101791.22;4977560;28;20039;-76
2022/07/28 10:38:34;;;;;;;4.53;1.20;;;;;;;20.06;45.59;101788.25;4992379;28;20038;-77
2022/07/28 10:41:02;;;;;;;2.92;1.00;;;;;;;20.29;44.42;101774.41;4988349;28;20022;-77
2022/07/28 10:43:30;;;;;;;3.30;1.00;;;;;;;20.38;44.65;101784.78;4986356;28;20026;-76
2022/07/28 10:45:57;;;;;;;4.10;1.10;;;;;;;20.43;43.28;101782.47;4984872;28;20138;-77
2022/07/28 10:48:22;;;;;;;5.10;1.02;;;;;;;20.40;43.88;101781.97;4975781;28;20027;-78
2022/07/28 10:51:04;;;;;;;1.98;1.05;;;;;;;20.48;43.61;101782.03;4974359;28;20022;-78
2022/07/28 10:53:38;;;;;;;5.88;1.30;;;;;;;20.74;44.57;101788.88;4984754;28;20092;-79
2022/07/28 10:56:11;;;;;;;2.53;0.80;;;;;;;20.78;43.62;101784.94;4984636;28;20482;-78
2022/07/28 10:59:01;;;;;;;4.63;1.20;;;;;;;20.72;42.60;101777.69;4982651;28;20034;-78
2022/07/28 11:01:37;;;;;;;3.97;1.10;;;;;;;20.91;42.64;101774.66;4981574;28;20502;-76
2022/07/28 11:04:05;;;;;;;3.80;1.27;;;;;;;20.74;40.96;101767.78;4984881;28;20101;-80
2022/07/28 11:06:33;;;;;;;3.25;0.95;;;;;;;21.03;44.26;101778.56;4985634;28;20029;-78
2022/07/28 11:09:14;;;;;;;2.58;0.88;;;;;;;20.94;42.60;101779.59;4983156;28;20041;-78
2022/07/28 11:11:45;;;;;;;3.58;1.15;;;;;;;20.93;42.40;101777.94;4991895;28;20022;-79
2022/07/28 11:14:23;;;;;;;3.78;1.10;;;;;;;21.05;42.44;101779.25;4991954;28;20028;-80
2022/07/28 11:17:09;;;;;;;4.15;1.30;;;;;;;21.01;42.45;101785.03;4982894;28;20034;-78
2022/07/28 11:19:43;;;;;;;16.67;2.53;;;;;;;21.06;42.21;101783.53;4982659;28;20128;-79
2022/07/28 11:22:18;;;;;;;5.40;1.67;;;;;;;20.84;41.54;101776.34;4990066;28;20121;-78
2022/07/28 11:24:55;;;;;;;2.35;1.02;;;;;;;20.97;42.47;101773.97;4989258;28;20525;-78
2022/07/28 11:27:39;;;;;;;2.90;1.00;;;;;;;21.30;44.55;101774.69;4987270;28;20051;-79
2022/07/28 11:30:24;;;;;;;3.30;1.10;;;;;;;21.15;42.42;101777.19;4990113;28;20035;-76
2022/07/28 11:32:50;;;;;;;4.30;1.25;;;;;;;21.15;41.08;101774.56;4974127;28;20038;-78
2022/07/28 11:35:23;;;;;;;4.20;1.02;;;;;;;21.18;41.97;101766.31;4998683;28;20037;-79
2022/07/28 11:38:00;;;;;;;5.47;1.30;;;;;;;21.40;42.45;101763.94;4984524;28;20029;-78